Time;durP1;ratioP1;P1;durP2;ratioP2;P2;SDS_P1;SDS_P2;PMS_P1;PMS_P2;Temp;Humidity;BMP_temperature;BMP_pressure;BME280_temperature;BME280_humidity;BME280_pressure;Samples;Min_cycle;Max_cycle;Signal;HPM_P1;HPM_P2
2022/11/10 00:00:25;;;;;;;75.37;35.83;;;;;;;;;;737530;190;819597;-74
2022/11/10 00:02:51;;;;;;;75.60;38.20;;;;;;;;;;735684;190;895888;-74
2022/11/10 00:05:17;;;;;;;72.93;35.57;;;;;;;;;;743190;189;898141;-74
2022/11/10 00:07:42;;;;;;;70.63;36.40;;;;;;;;;;736286;190;1001171;-74
2022/11/10 00:10:08;;;;;;;68.23;34.40;;;;;;;;;;732656;188;918409;-74
2022/11/10 00:12:34;;;;;;;68.93;35.73;;;;;;;;;;738091;191;918592;-73
2022/11/10 00:17:32;;;;;;;68.00;35.30;;;;;;;;;;726078;190;921965;-73
2022/11/10 00:19:57;;;;;;;77.90;36.07;;;;;;;;;;733172;191;917886;-74
2022/11/10 00:22:23;;;;;;;73.83;37.77;;;;;;;;;;739410;187;815317;-74
2022/11/10 00:24:49;;;;;;;66.77;35.87;;;;;;;;;;732665;188;839581;-74
2022/11/10 00:27:15;;;;;;;70.55;34.70;;;;;;;;;;735781;191;924549;-73
2022/11/10 00:29:41;;;;;;;69.43;36.67;;;;;;;;;;733419;190;922843;-73
2022/11/10 00:32:07;;;;;;;74.20;36.17;;;;;;;;;;732535;191;912975;-74
2022/11/10 00:34:33;;;;;;;71.15;34.25;;;;;;;;;;728621;190;770147;-74
2022/11/10 00:36:58;;;;;;;72.23;37.17;;;;;;;;;;735200;187;919432;-74
2022/11/10 00:39:24;;;;;;;72.17;36.00;;;;;;;;;;700944;198;920169;-74
2022/11/10 00:41:50;;;;;;;74.83;36.87;;;;;;;;;;722503;191;818992;-74
2022/11/10 00:44:16;;;;;;;82.17;36.20;;;;;;;;;;735746;188;916589;-74
2022/11/10 00:46:42;;;;;;;73.53;36.85;;;;;;;;;;736689;190;919329;-74
2022/11/10 00:49:08;;;;;;;73.87;36.47;;;;;;;;;;723071;191;919415;-74
2022/11/10 00:51:34;;;;;;;71.10;35.33;;;;;;;;;;726961;191;916631;-74
2022/11/10 00:53:59;;;;;;;69.17;34.80;;;;;;;;;;735735;191;918796;-74
2022/11/10 00:56:25;;;;;;;66.43;37.10;;;;;;;;;;737045;189;920137;-74
2022/11/10 00:58:51;;;;;;;75.40;37.37;;;;;;;;;;735964;191;919138;-74
2022/11/10 01:01:17;;;;;;;73.73;36.73;;;;;;;;;;732293;190;921185;-74
2022/11/10 01:03:43;;;;;;;77.43;37.70;;;;;;;;;;725650;191;815788;-74
2022/11/10 01:06:09;;;;;;;72.97;36.83;;;;;;;;;;735239;191;917660;-74
2022/11/10 01:08:35;;;;;;;68.67;36.10;;;;;;;;;;739438;188;923613;-74
2022/11/10 01:11:01;;;;;;;74.80;35.70;;;;;;;;;;729303;190;918750;-74
2022/11/10 01:13:27;;;;;;;68.87;35.73;;;;;;;;;;736242;188;918836;-74
2022/11/10 01:15:53;;;;;;;81.95;37.83;;;;;;;;;;733851;190;916885;-74
2022/11/10 01:18:18;;;;;;;74.27;38.13;;;;;;;;;;743697;186;818811;-74
2022/11/10 01:20:44;;;;;;;64.60;35.57;;;;;;;;;;737082;190;818204;-74
2022/11/10 01:23:10;;;;;;;73.53;36.87;;;;;;;;;;721169;190;918170;-74
2022/11/10 01:25:36;;;;;;;71.60;34.53;;;;;;;;;;741490;190;917497;-74
2022/11/10 01:28:02;;;;;;;71.78;36.38;;;;;;;;;;735808;191;913194;-74
2022/11/10 01:30:28;;;;;;;78.73;36.30;;;;;;;;;;733756;190;918649;-73
2022/11/10 01:32:54;;;;;;;68.00;35.43;;;;;;;;;;734413;191;918178;-74
2022/11/10 01:35:20;;;;;;;72.23;33.93;;;;;;;;;;739081;189;920599;-74
2022/11/10 01:37:45;;;;;;;81.20;39.10;;;;;;;;;;734941;189;916978;-74
2022/11/10 01:40:11;;;;;;;69.10;35.03;;;;;;;;;;734891;190;918898;-73
2022/11/10 01:42:37;;;;;;;71.73;35.97;;;;;;;;;;735617;189;619588;-75
2022/11/10 01:45:09;;;;;;;72.93;33.47;;;;;;;;;;725999;190;918554;-74
2022/11/10 01:47:35;;;;;;;72.40;34.83;;;;;;;;;;732609;190;626609;-74
2022/11/10 01:50:01;;;;;;;75.17;35.50;;;;;;;;;;736087;188;630661;-74
2022/11/10 01:52:26;;;;;;;70.53;36.30;;;;;;;;;;734873;190;922663;-73
2022/11/10 01:54:52;;;;;;;69.80;36.60;;;;;;;;;;734111;189;817803;-74
2022/11/10 01:57:19;;;;;;;68.62;36.03;;;;;;;;;;734703;190;923117;-73
2022/11/10 01:59:44;;;;;;;64.50;34.30;;;;;;;;;;738992;189;916248;-74
2022/11/10 02:02:10;;;;;;;58.47;33.27;;;;;;;;;;730348;190;821061;-74
2022/11/10 02:04:36;;;;;;;68.93;36.13;;;;;;;;;;731003;189;1020356;-74
2022/11/10 02:07:02;;;;;;;66.90;35.13;;;;;;;;;;735965;190;915112;-74
2022/11/10 02:09:28;;;;;;;59.13;32.40;;;;;;;;;;732936;188;913106;-74
2022/11/10 02:11:54;;;;;;;65.87;35.00;;;;;;;;;;732711;190;916493;-74
2022/11/10 02:14:19;;;;;;;67.30;36.17;;;;;;;;;;735901;190;868798;-75
2022/11/10 02:16:45;;;;;;;87.27;35.70;;;;;;;;;;734156;190;887700;-73
2022/11/10 02:19:12;;;;;;;64.27;33.00;;;;;;;;;;731852;188;914813;-73
2022/11/10 02:21:38;;;;;;;75.03;36.30;;;;;;;;;;737871;190;807171;-74
2022/11/10 02:24:04;;;;;;;65.10;34.50;;;;;;;;;;733725;189;890549;-74
2022/11/10 02:26:30;;;;;;;68.80;34.70;;;;;;;;;;730807;190;883037;-74
2022/11/10 02:28:55;;;;;;;68.70;34.07;;;;;;;;;;734134;188;919572;-73
2022/11/10 02:31:21;;;;;;;67.03;32.50;;;;;;;;;;734076;191;883072;-73
2022/11/10 02:33:47;;;;;;;68.67;37.23;;;;;;;;;;729866;190;710018;-74
2022/11/10 02:36:13;;;;;;;70.03;32.67;;;;;;;;;;728198;190;919623;-75
2022/11/10 02:38:39;;;;;;;64.33;32.40;;;;;;;;;;735252;190;918048;-74
2022/11/10 02:41:05;;;;;;;74.47;36.83;;;;;;;;;;733741;190;915873;-74
2022/11/10 02:43:31;;;;;;;68.53;34.63;;;;;;;;;;728886;190;1018550;-75
2022/11/10 02:45:56;;;;;;;65.33;32.20;;;;;;;;;;732249;190;916218;-73
2022/11/10 02:48:22;;;;;;;58.50;31.77;;;;;;;;;;732126;191;916358;-73
2022/11/10 02:50:48;;;;;;;63.83;33.20;;;;;;;;;;729432;190;916356;-74
2022/11/10 02:53:14;;;;;;;63.65;32.10;;;;;;;;;;731390;188;918147;-74
2022/11/10 02:55:40;;;;;;;72.47;35.90;;;;;;;;;;740747;185;920242;-74
2022/11/10 02:58:06;;;;;;;63.50;34.47;;;;;;;;;;730571;188;815126;-75
2022/11/10 03:00:32;;;;;;;67.07;36.03;;;;;;;;;;732659;189;915617;-74
2022/11/10 03:02:57;;;;;;;71.47;32.93;;;;;;;;;;732472;190;915534;-74
2022/11/10 03:05:23;;;;;;;69.37;33.07;;;;;;;;;;732399;190;911297;-73
2022/11/10 03:07:51;;;;;;;63.20;32.87;;;;;;;;;;734186;191;915338;-75
2022/11/10 03:10:17;;;;;;;66.60;33.73;;;;;;;;;;738357;189;889736;-73
2022/11/10 03:12:43;;;;;;;59.20;32.27;;;;;;;;;;730411;191;918723;-75
2022/11/10 03:15:09;;;;;;;62.20;32.33;;;;;;;;;;733229;189;915950;-74
2022/11/10 03:17:34;;;;;;;56.47;32.40;;;;;;;;;;734780;191;916280;-74
2022/11/10 03:20:00;;;;;;;57.77;30.53;;;;;;;;;;738407;188;914810;-74
2022/11/10 03:22:26;;;;;;;62.57;33.63;;;;;;;;;;734796;190;916378;-74
2022/11/10 03:24:52;;;;;;;67.55;33.42;;;;;;;;;;738975;188;914637;-74
2022/11/10 03:27:18;;;;;;;66.03;31.87;;;;;;;;;;728577;190;922146;-74
2022/11/10 03:29:44;;;;;;;69.28;35.22;;;;;;;;;;710226;195;911907;-74
2022/11/10 03:32:10;;;;;;;75.03;35.30;;;;;;;;;;721020;193;915902;-74
2022/11/10 03:34:35;;;;;;;73.30;35.73;;;;;;;;;;747878;190;915007;-74
2022/11/10 03:37:01;;;;;;;66.00;33.73;;;;;;;;;;737987;190;919664;-74
2022/11/10 03:39:27;;;;;;;71.07;34.47;;;;;;;;;;731965;188;915607;-75
2022/11/10 03:41:53;;;;;;;67.20;32.60;;;;;;;;;;732513;190;916097;-74
2022/11/10 03:44:19;;;;;;;71.73;36.33;;;;;;;;;;733431;188;914339;-74
2022/11/10 03:46:45;;;;;;;68.63;36.33;;;;;;;;;;730728;190;812765;-75
2022/11/10 03:49:11;;;;;;;70.18;33.58;;;;;;;;;;737546;191;812807;-74
2022/11/10 03:51:36;;;;;;;68.17;33.60;;;;;;;;;;738755;191;799072;-74
2022/11/10 03:54:02;;;;;;;71.73;32.77;;;;;;;;;;734065;189;916419;-74
2022/11/10 03:56:28;;;;;;;65.97;34.38;;;;;;;;;;734099;190;813299;-74
2022/11/10 03:58:54;;;;;;;71.13;34.30;;;;;;;;;;737584;187;857810;-75
2022/11/10 04:01:20;;;;;;;73.60;35.23;;;;;;;;;;735433;189;918783;-74
2022/11/10 04:03:46;;;;;;;74.82;36.35;;;;;;;;;;722355;190;914826;-74
2022/11/10 04:15:40;;;;;;;68.00;33.93;;;;;;;;;;730396;190;917078;-75
2022/11/10 04:16:14;;;;;;;71.07;32.03;;;;;;;;;;732948;189;914652;-74
2022/11/10 04:18:41;;;;;;;77.27;36.23;;;;;;;;;;741957;189;913402;-74
2022/11/10 04:21:06;;;;;;;75.40;34.60;;;;;;;;;;728885;189;936520;-74
2022/11/10 04:23:34;;;;;;;59.93;32.80;;;;;;;;;;729119;189;1015184;-74
2022/11/10 04:28:41;;;;;;;71.67;32.63;;;;;;;;;;739510;188;915828;-74
2022/11/10 04:31:06;;;;;;;76.37;35.30;;;;;;;;;;735752;189;919588;-74
2022/11/10 04:33:32;;;;;;;78.43;35.10;;;;;;;;;;738039;190;918239;-75
2022/11/10 04:35:58;;;;;;;69.47;32.80;;;;;;;;;;736156;190;929284;-74
2022/11/10 04:38:24;;;;;;;63.70;32.03;;;;;;;;;;728601;188;935578;-74
2022/11/10 04:40:50;;;;;;;74.10;36.20;;;;;;;;;;730493;190;919470;-74
2022/11/10 04:43:16;;;;;;;70.53;34.85;;;;;;;;;;732930;190;918017;-73
2022/11/10 04:45:42;;;;;;;70.10;33.57;;;;;;;;;;737529;191;918401;-73
2022/11/10 04:48:08;;;;;;;81.53;37.30;;;;;;;;;;726724;191;877486;-74
2022/11/10 04:50:34;;;;;;;76.22;36.90;;;;;;;;;;732987;190;816320;-74
2022/11/10 04:52:59;;;;;;;82.40;35.80;;;;;;;;;;738682;190;881656;-74
2022/11/10 04:55:25;;;;;;;81.73;36.13;;;;;;;;;;732176;191;919940;-73
2022/11/10 04:57:51;;;;;;;71.70;38.00;;;;;;;;;;733790;191;918806;-74
2022/11/10 05:00:17;;;;;;;72.30;35.37;;;;;;;;;;735643;190;917942;-75
2022/11/10 05:02:43;;;;;;;70.83;34.73;;;;;;;;;;727926;190;919664;-74
2022/11/10 05:05:10;;;;;;;69.80;35.30;;;;;;;;;;733727;188;817971;-74
2022/11/10 05:07:35;;;;;;;73.87;36.70;;;;;;;;;;734114;189;918026;-73
2022/11/10 05:10:01;;;;;;;79.20;37.60;;;;;;;;;;736292;188;918587;-74
2022/11/10 05:12:26;;;;;;;80.40;37.33;;;;;;;;;;732605;189;1014416;-75
2022/11/10 05:14:52;;;;;;;69.00;35.57;;;;;;;;;;733300;188;919056;-75
2022/11/10 05:17:18;;;;;;;63.37;34.40;;;;;;;;;;737207;190;903906;-74
2022/11/10 05:19:46;;;;;;;66.30;33.53;;;;;;;;;;728301;190;917922;-74
2022/11/10 05:22:10;;;;;;;66.37;32.10;;;;;;;;;;727136;189;917394;-74
2022/11/10 05:24:36;;;;;;;65.30;34.80;;;;;;;;;;731736;189;880717;-74
2022/11/10 05:27:02;;;;;;;77.20;36.43;;;;;;;;;;729634;191;919581;-74
2022/11/10 05:29:27;;;;;;;72.18;36.03;;;;;;;;;;731046;188;921403;-74
2022/11/10 05:31:53;;;;;;;69.60;33.30;;;;;;;;;;732531;191;915892;-75
2022/11/10 05:34:19;;;;;;;70.40;34.60;;;;;;;;;;736713;190;918594;-74
2022/11/10 05:36:45;;;;;;;67.70;31.97;;;;;;;;;;730601;191;916391;-74
2022/11/10 05:39:11;;;;;;;72.70;34.27;;;;;;;;;;732234;190;919531;-74
2022/11/10 05:41:37;;;;;;;68.28;34.65;;;;;;;;;;736547;190;815276;-74
2022/11/10 05:44:02;;;;;;;77.50;34.87;;;;;;;;;;734954;188;919675;-74
2022/11/10 05:46:30;;;;;;;68.43;34.17;;;;;;;;;;733054;190;918703;-74
2022/11/10 05:48:54;;;;;;;72.27;34.17;;;;;;;;;;734580;188;918346;-74
2022/11/10 05:51:20;;;;;;;77.50;36.47;;;;;;;;;;729545;190;921143;-75
2022/11/10 05:53:46;;;;;;;65.90;34.77;;;;;;;;;;728663;190;826721;-74
2022/11/10 05:56:12;;;;;;;70.70;32.93;;;;;;;;;;729470;190;1426236;-74
2022/11/10 05:58:38;;;;;;;67.70;34.50;;;;;;;;;;741813;186;640135;-74
2022/11/10 06:01:04;;;;;;;68.43;35.20;;;;;;;;;;735310;190;1048878;-74
2022/11/10 06:03:30;;;;;;;78.13;34.03;;;;;;;;;;727197;190;1017764;-75
2022/11/10 06:05:56;;;;;;;69.57;35.93;;;;;;;;;;736036;191;916814;-74
2022/11/10 06:08:21;;;;;;;70.63;36.80;;;;;;;;;;732825;188;906136;-74
2022/11/10 06:10:47;;;;;;;73.15;36.53;;;;;;;;;;734808;190;805324;-74
2022/11/10 06:13:13;;;;;;;67.20;34.70;;;;;;;;;;738413;188;841999;-74
2022/11/10 06:15:39;;;;;;;73.43;34.30;;;;;;;;;;732694;190;894382;-74
2022/11/10 06:18:05;;;;;;;76.72;36.45;;;;;;;;;;730026;190;930587;-74
2022/11/10 06:20:31;;;;;;;66.77;34.77;;;;;;;;;;732363;189;921074;-74
2022/11/10 06:22:59;;;;;;;67.00;32.40;;;;;;;;;;729675;190;820815;-75
2022/11/10 06:25:25;;;;;;;68.43;32.97;;;;;;;;;;732612;190;911815;-74
2022/11/10 06:27:51;;;;;;;75.90;34.60;;;;;;;;;;730642;190;919276;-74
2022/11/10 06:30:17;;;;;;;71.60;37.43;;;;;;;;;;739395;188;616958;-74
2022/11/10 06:32:43;;;;;;;77.13;33.67;;;;;;;;;;706423;196;917426;-75
2022/11/10 06:35:08;;;;;;;63.60;33.90;;;;;;;;;;721783;194;922062;-73
2022/11/10 06:37:34;;;;;;;70.20;33.30;;;;;;;;;;736741;190;817865;-74
2022/11/10 06:40:00;;;;;;;66.40;36.17;;;;;;;;;;733043;190;919928;-73
2022/11/10 06:42:26;;;;;;;76.60;34.67;;;;;;;;;;728995;190;919043;-73
2022/11/10 06:44:52;;;;;;;70.57;34.87;;;;;;;;;;734267;191;907553;-74
2022/11/10 06:47:18;;;;;;;68.63;34.27;;;;;;;;;;730789;191;813632;-74
2022/11/10 06:49:44;;;;;;;66.63;31.83;;;;;;;;;;735121;190;811329;-73
2022/11/10 06:52:10;;;;;;;67.37;34.73;;;;;;;;;;731662;190;819166;-73
2022/11/10 06:54:36;;;;;;;70.10;34.63;;;;;;;;;;737338;188;814877;-74
2022/11/10 06:57:02;;;;;;;75.10;36.30;;;;;;;;;;733649;189;914704;-74
2022/11/10 06:59:28;;;;;;;68.57;35.33;;;;;;;;;;733249;190;920236;-73
2022/11/10 07:01:53;;;;;;;70.00;35.93;;;;;;;;;;737780;190;938714;-74
2022/11/10 07:04:19;;;;;;;82.80;36.30;;;;;;;;;;736293;188;912027;-74
2022/11/10 07:06:45;;;;;;;75.73;36.80;;;;;;;;;;729220;190;907426;-74
2022/11/10 07:09:11;;;;;;;82.10;41.30;;;;;;;;;;736086;191;701044;-74
2022/11/10 07:11:37;;;;;;;81.23;38.67;;;;;;;;;;732316;190;919270;-74
2022/11/10 07:14:03;;;;;;;73.57;35.63;;;;;;;;;;736100;186;1007197;-73
2022/11/10 07:16:28;;;;;;;78.97;36.43;;;;;;;;;;725827;191;919205;-73
2022/11/10 07:18:54;;;;;;;72.73;37.93;;;;;;;;;;732428;190;1021414;-74
2022/11/10 07:21:20;;;;;;;78.77;37.80;;;;;;;;;;708281;196;917389;-73
2022/11/10 07:23:46;;;;;;;76.27;37.13;;;;;;;;;;724687;191;918387;-74
2022/11/10 07:26:12;;;;;;;79.47;37.83;;;;;;;;;;735380;190;919631;-73
2022/11/10 07:28:38;;;;;;;69.93;35.33;;;;;;;;;;721278;190;918474;-74
2022/11/10 07:31:04;;;;;;;66.43;34.87;;;;;;;;;;723983;190;809113;-74
2022/11/10 07:33:29;;;;;;;100.87;45.40;;;;;;;;;;735281;191;913026;-74
2022/11/10 07:35:55;;;;;;;106.97;50.80;;;;;;;;;;736185;190;811529;-73
2022/11/10 07:38:21;;;;;;;92.23;46.30;;;;;;;;;;731479;190;919649;-73
2022/11/10 07:40:50;;;;;;;94.47;46.03;;;;;;;;;;734340;189;696507;-73
2022/11/10 07:43:16;;;;;;;87.07;41.20;;;;;;;;;;736694;188;919308;-74
2022/11/10 07:45:42;;;;;;;82.27;41.90;;;;;;;;;;732001;190;816273;-75
2022/11/10 07:48:08;;;;;;;84.20;42.28;;;;;;;;;;735155;191;816471;-74
2022/11/10 07:50:33;;;;;;;72.70;37.77;;;;;;;;;;736043;190;918547;-75
2022/11/10 07:53:09;;;;;;;71.70;37.20;;;;;;;;;;731863;190;918897;-75
2022/11/10 07:55:35;;;;;;;80.47;37.10;;;;;;;;;;733612;190;816705;-75
2022/11/10 07:58:01;;;;;;;74.65;36.40;;;;;;;;;;728034;191;918458;-74
2022/11/10 08:00:27;;;;;;;68.70;37.03;;;;;;;;;;742991;190;622350;-75
2022/11/10 08:02:53;;;;;;;74.87;36.23;;;;;;;;;;732490;190;816655;-75
2022/11/10 08:05:19;;;;;;;71.50;33.67;;;;;;;;;;730600;190;919163;-75
2022/11/10 08:07:44;;;;;;;67.07;34.28;;;;;;;;;;738002;190;928553;-73
2022/11/10 08:10:10;;;;;;;76.90;35.73;;;;;;;;;;735397;188;919139;-73
2022/11/10 08:12:36;;;;;;;74.27;35.10;;;;;;;;;;732032;190;817808;-74
2022/11/10 08:15:02;;;;;;;73.43;35.63;;;;;;;;;;734528;188;917729;-73
2022/11/10 08:17:28;;;;;;;71.30;38.27;;;;;;;;;;734528;190;815221;-75
2022/11/10 08:19:54;;;;;;;65.97;33.90;;;;;;;;;;728927;190;918420;-73
2022/11/10 08:22:20;;;;;;;76.77;35.40;;;;;;;;;;734609;189;816242;-74
2022/11/10 08:24:46;;;;;;;71.77;37.17;;;;;;;;;;743698;187;878785;-73
2022/11/10 08:27:12;;;;;;;76.93;37.83;;;;;;;;;;729706;190;952906;-74
2022/11/10 08:29:38;;;;;;;70.87;35.40;;;;;;;;;;732963;188;917616;-74
2022/11/10 08:32:04;;;;;;;64.07;34.77;;;;;;;;;;736341;190;895629;-73
2022/11/10 08:34:30;;;;;;;66.63;34.57;;;;;;;;;;731089;189;814203;-73
2022/11/10 08:36:55;;;;;;;75.10;35.97;;;;;;;;;;732116;189;918153;-73
2022/11/10 08:39:21;;;;;;;79.43;37.47;;;;;;;;;;736414;190;918763;-74
2022/11/10 08:41:47;;;;;;;71.70;36.33;;;;;;;;;;731489;190;919243;-75
2022/11/10 08:44:13;;;;;;;76.90;33.35;;;;;;;;;;733827;188;917499;-74
2022/11/10 08:46:39;;;;;;;77.23;38.97;;;;;;;;;;734268;191;816553;-73
2022/11/10 08:49:05;;;;;;;76.07;33.90;;;;;;;;;;742496;188;627833;-74
2022/11/10 08:51:31;;;;;;;74.37;38.10;;;;;;;;;;735101;189;914747;-73
2022/11/10 08:53:56;;;;;;;70.83;34.37;;;;;;;;;;736132;191;636253;-74
2022/11/10 08:56:22;;;;;;;69.57;37.67;;;;;;;;;;732533;190;919229;-74
2022/11/10 08:58:49;;;;;;;73.90;37.63;;;;;;;;;;727791;191;917986;-74
2022/11/10 09:01:14;;;;;;;78.10;37.00;;;;;;;;;;724175;190;918432;-74
2022/11/10 09:03:40;;;;;;;70.73;34.40;;;;;;;;;;735581;188;919642;-73
2022/11/10 09:06:06;;;;;;;82.57;37.17;;;;;;;;;;729199;190;918941;-74
2022/11/10 09:08:32;;;;;;;69.97;33.30;;;;;;;;;;732759;190;920039;-74
2022/11/10 09:10:57;;;;;;;64.50;36.93;;;;;;;;;;728657;191;921636;-75
2022/11/10 09:13:23;;;;;;;65.70;36.70;;;;;;;;;;746443;186;921938;-73
2022/11/10 09:15:49;;;;;;;77.47;35.77;;;;;;;;;;731462;190;816508;-73
2022/11/10 09:18:16;;;;;;;71.67;35.53;;;;;;;;;;728527;187;817070;-74
2022/11/10 09:20:41;;;;;;;66.00;34.47;;;;;;;;;;739490;189;814083;-74
2022/11/10 09:23:09;;;;;;;72.77;36.70;;;;;;;;;;734340;190;816994;-73
2022/11/10 09:25:35;;;;;;;74.73;34.93;;;;;;;;;;737602;190;921716;-74
2022/11/10 09:28:01;;;;;;;75.00;37.80;;;;;;;;;;742282;188;812131;-75
2022/11/10 09:30:27;;;;;;;72.10;37.80;;;;;;;;;;735395;190;812994;-74
2022/11/10 09:32:53;;;;;;;64.17;34.43;;;;;;;;;;736992;191;892600;-74
2022/11/10 09:35:19;;;;;;;73.67;38.03;;;;;;;;;;738101;188;1015768;-74
2022/11/10 09:37:44;;;;;;;66.13;36.00;;;;;;;;;;740235;191;630805;-74
2022/11/10 09:40:11;;;;;;;62.70;35.00;;;;;;;;;;742261;190;817104;-74
2022/11/10 09:42:37;;;;;;;65.97;35.53;;;;;;;;;;730905;190;815815;-75
2022/11/10 09:45:04;;;;;;;71.10;38.07;;;;;;;;;;742681;187;615715;-74
2022/11/10 09:47:32;;;;;;;61.17;34.17;;;;;;;;;;731416;190;623487;-74
2022/11/10 09:49:59;;;;;;;75.97;35.90;;;;;;;;;;736246;190;618874;-74
2022/11/10 09:52:24;;;;;;;62.93;33.90;;;;;;;;;;735008;190;818773;-75
2022/11/10 09:54:54;;;;;;;60.37;33.30;;;;;;;;;;738743;188;624790;-74
2022/11/10 09:57:20;;;;;;;61.30;34.70;;;;;;;;;;733834;189;636060;-74
2022/11/10 09:59:46;;;;;;;67.93;33.40;;;;;;;;;;729466;188;1021447;-74
2022/11/10 10:02:18;;;;;;;62.17;33.28;;;;;;;;;;733887;190;919004;-74
2022/11/10 10:04:46;;;;;;;66.10;34.67;;;;;;;;;;710578;198;917657;-74
2022/11/10 10:07:12;;;;;;;70.22;35.10;;;;;;;;;;733209;190;918574;-74
2022/11/10 10:09:44;;;;;;;71.63;35.40;;;;;;;;;;736737;188;915002;-74
2022/11/10 10:12:10;;;;;;;61.63;34.17;;;;;;;;;;726687;191;1002621;-74
2022/11/10 10:14:39;;;;;;;61.27;31.93;;;;;;;;;;731233;187;915834;-74
2022/11/10 10:17:05;;;;;;;57.50;32.93;;;;;;;;;;728343;190;950711;-74
2022/11/10 10:19:37;;;;;;;68.53;35.80;;;;;;;;;;735193;189;914338;-74
2022/11/10 10:22:09;;;;;;;62.72;35.78;;;;;;;;;;734906;190;816938;-74
2022/11/10 10:24:34;;;;;;;59.47;34.03;;;;;;;;;;733642;190;918661;-74
2022/11/10 10:27:00;;;;;;;70.85;35.63;;;;;;;;;;732466;190;817022;-73
2022/11/10 10:29:27;;;;;;;81.13;37.37;;;;;;;;;;735268;187;817179;-74
2022/11/10 10:31:53;;;;;;;65.27;34.33;;;;;;;;;;738135;189;919808;-74
2022/11/10 10:34:20;;;;;;;62.43;32.10;;;;;;;;;;736541;187;918873;-74
2022/11/10 10:36:46;;;;;;;55.70;29.20;;;;;;;;;;730795;190;918960;-74
2022/11/10 10:39:13;;;;;;;73.93;32.00;;;;;;;;;;740889;190;815286;-74
2022/11/10 10:41:39;;;;;;;61.57;32.70;;;;;;;;;;735415;188;821133;-74
2022/11/10 10:44:05;;;;;;;55.27;29.50;;;;;;;;;;729865;188;918393;-74
2022/11/10 10:46:30;;;;;;;63.33;32.83;;;;;;;;;;726620;191;916963;-74
2022/11/10 10:49:02;;;;;;;62.88;31.30;;;;;;;;;;733331;190;1027824;-74
2022/11/10 10:51:28;;;;;;;61.57;33.43;;;;;;;;;;733809;190;919673;-75
2022/11/10 10:53:54;;;;;;;72.50;33.60;;;;;;;;;;732642;190;911299;-73
2022/11/10 10:56:20;;;;;;;64.43;29.60;;;;;;;;;;739153;190;918901;-74
2022/11/10 10:59:04;;;;;;;62.53;30.43;;;;;;;;;;729411;189;1021184;-74
2022/11/10 11:01:31;;;;;;;61.20;30.90;;;;;;;;;;730542;190;826710;-74
2022/11/10 11:03:57;;;;;;;56.60;31.97;;;;;;;;;;733851;188;920198;-74
2022/11/10 11:06:25;;;;;;;65.07;31.40;;;;;;;;;;733422;190;920658;-75
2022/11/10 11:08:54;;;;;;;58.87;31.20;;;;;;;;;;737740;190;1025377;-75
2022/11/10 11:11:19;;;;;;;64.53;32.83;;;;;;;;;;737932;190;627167;-75
2022/11/10 11:13:45;;;;;;;63.93;33.90;;;;;;;;;;732583;188;917421;-75
2022/11/10 11:16:11;;;;;;;59.90;32.77;;;;;;;;;;732218;191;814266;-75
2022/11/10 11:18:37;;;;;;;64.17;33.57;;;;;;;;;;729793;188;916028;-74
2022/11/10 11:21:04;;;;;;;61.87;32.60;;;;;;;;;;726758;190;920763;-74
2022/11/10 11:23:40;;;;;;;59.47;30.70;;;;;;;;;;730666;187;918821;-75
2022/11/10 11:26:09;;;;;;;56.83;30.40;;;;;;;;;;739508;189;917517;-75
2022/11/10 11:28:35;;;;;;;67.67;31.97;;;;;;;;;;735866;190;922694;-74
2022/11/10 11:31:02;;;;;;;54.07;29.80;;;;;;;;;;736600;189;627907;-75
2022/11/10 11:33:45;;;;;;;55.33;32.38;;;;;;;;;;730735;190;814198;-74
2022/11/10 11:36:21;;;;;;;59.63;33.90;;;;;;;;;;727371;190;918206;-75
2022/11/10 11:38:49;;;;;;;51.13;31.03;;;;;;;;;;729933;188;916060;-74
2022/11/10 11:41:17;;;;;;;57.90;30.63;;;;;;;;;;731630;189;912472;-76
2022/11/10 11:43:43;;;;;;;53.07;29.37;;;;;;;;;;710097;196;772968;-74
2022/11/10 11:46:15;;;;;;;52.90;29.37;;;;;;;;;;728890;190;916052;-74
2022/11/10 11:48:43;;;;;;;59.57;31.10;;;;;;;;;;734060;189;830810;-75
2022/11/10 11:51:10;;;;;;;51.47;29.17;;;;;;;;;;737092;186;916969;-75
2022/11/10 11:53:39;;;;;;;55.30;30.17;;;;;;;;;;730017;187;918505;-75
2022/11/10 11:56:05;;;;;;;49.10;26.30;;;;;;;;;;733149;190;919191;-74
2022/11/10 11:58:31;;;;;;;54.10;29.97;;;;;;;;;;735477;190;883589;-74
2022/11/10 12:01:03;;;;;;;48.63;27.70;;;;;;;;;;728641;188;916940;-75
2022/11/10 12:03:29;;;;;;;47.10;24.80;;;;;;;;;;735523;187;929936;-76
2022/11/10 12:06:01;;;;;;;41.20;24.47;;;;;;;;;;726346;190;906553;-75
2022/11/10 12:08:29;;;;;;;37.00;24.20;;;;;;;;;;734096;189;918492;-75
2022/11/10 12:11:00;;;;;;;49.93;22.57;;;;;;;;;;732065;190;911854;-75
2022/11/10 12:13:29;;;;;;;37.57;22.90;;;;;;;;;;736399;187;918115;-75
2022/11/10 12:16:11;;;;;;;39.30;22.60;;;;;;;;;;731436;190;916987;-75
2022/11/10 12:18:39;;;;;;;41.65;24.48;;;;;;;;;;729213;190;1058074;-75
2022/11/10 12:21:20;;;;;;;35.57;21.53;;;;;;;;;;739108;191;911256;-75
2022/11/10 12:23:52;;;;;;;40.97;23.80;;;;;;;;;;734228;190;935176;-75
2022/11/10 12:26:24;;;;;;;43.77;23.20;;;;;;;;;;740993;191;915619;-75
2022/11/10 12:28:51;;;;;;;48.07;23.20;;;;;;;;;;733528;188;917218;-75
2022/11/10 12:31:16;;;;;;;40.73;22.90;;;;;;;;;;728821;191;918573;-75
2022/11/10 12:33:44;;;;;;;42.10;25.33;;;;;;;;;;734497;191;896394;-75
2022/11/10 12:36:10;;;;;;;40.00;23.00;;;;;;;;;;712055;197;919426;-75
2022/11/10 12:38:52;;;;;;;41.50;24.80;;;;;;;;;;730566;188;920491;-75
2022/11/10 12:41:17;;;;;;;38.67;21.67;;;;;;;;;;732733;191;1020209;-74
2022/11/10 12:43:46;;;;;;;39.00;20.43;;;;;;;;;;727389;189;919704;-74
2022/11/10 12:46:12;;;;;;;33.60;21.70;;;;;;;;;;731071;190;920275;-75
2022/11/10 12:48:38;;;;;;;42.73;25.20;;;;;;;;;;728027;191;816814;-75
2022/11/10 12:51:05;;;;;;;39.37;22.77;;;;;;;;;;731303;189;919833;-75
2022/11/10 12:53:31;;;;;;;41.47;22.33;;;;;;;;;;734314;188;901510;-74
2022/11/10 12:55:59;;;;;;;37.00;23.13;;;;;;;;;;736205;189;818977;-75
2022/11/10 12:58:25;;;;;;;35.13;22.20;;;;;;;;;;732524;189;913290;-75
2022/11/10 13:00:54;;;;;;;33.87;18.50;;;;;;;;;;735527;190;815748;-75
2022/11/10 13:03:23;;;;;;;29.30;18.20;;;;;;;;;;733293;190;816056;-75
2022/11/10 13:05:49;;;;;;;29.33;18.47;;;;;;;;;;734712;190;918136;-75
2022/11/10 13:08:15;;;;;;;28.70;17.47;;;;;;;;;;735559;190;1023241;-75
2022/11/10 13:10:45;;;;;;;34.60;21.07;;;;;;;;;;738728;191;919062;-74
2022/11/10 13:13:11;;;;;;;37.53;20.77;;;;;;;;;;739583;190;713544;-74
2022/11/10 13:15:52;;;;;;;33.80;18.47;;;;;;;;;;737003;189;713988;-75
2022/11/10 13:18:23;;;;;;;40.30;24.00;;;;;;;;;;733166;190;842159;-75
2022/11/10 13:20:49;;;;;;;41.97;25.40;;;;;;;;;;733530;189;918379;-74
2022/11/10 13:23:20;;;;;;;37.83;22.93;;;;;;;;;;741843;188;642540;-74
2022/11/10 13:25:52;;;;;;;41.30;22.00;;;;;;;;;;737319;191;622102;-75
2022/11/10 13:28:17;;;;;;;39.73;22.77;;;;;;;;;;734429;187;815665;-75
2022/11/10 13:30:44;;;;;;;40.33;23.50;;;;;;;;;;732338;189;629521;-75
2022/11/10 13:33:15;;;;;;;39.90;23.37;;;;;;;;;;743115;188;639070;-74
2022/11/10 13:35:44;;;;;;;35.27;22.13;;;;;;;;;;738600;190;632737;-74
2022/11/10 13:38:09;;;;;;;36.77;22.07;;;;;;;;;;733415;190;989722;-75
2022/11/10 13:40:35;;;;;;;38.10;21.47;;;;;;;;;;734917;191;816659;-76
2022/11/10 13:43:11;;;;;;;41.37;22.37;;;;;;;;;;738480;188;918601;-74
2022/11/10 13:45:38;;;;;;;34.80;21.30;;;;;;;;;;736611;191;918652;-75
2022/11/10 13:48:04;;;;;;;36.93;21.47;;;;;;;;;;730123;189;917388;-75
2022/11/10 13:50:32;;;;;;;34.87;20.60;;;;;;;;;;740377;191;892132;-74
2022/11/10 13:52:59;;;;;;;30.17;19.90;;;;;;;;;;733599;190;1226230;-74
2022/11/10 13:55:26;;;;;;;35.93;21.73;;;;;;;;;;731774;190;919356;-74
2022/11/10 13:57:54;;;;;;;21.60;11.93;;;;;;;;;;735566;190;816585;-75
2022/11/10 14:00:23;;;;;;;19.53;11.73;;;;;;;;;;731344;188;917231;-75
2022/11/10 14:02:49;;;;;;;18.53;9.80;;;;;;;;;;735508;191;918381;-75
2022/11/10 14:05:21;;;;;;;18.93;10.37;;;;;;;;;;734251;188;714003;-76
2022/11/10 14:07:47;;;;;;;16.67;9.60;;;;;;;;;;734764;190;908516;-75
2022/11/10 14:10:13;;;;;;;19.33;10.80;;;;;;;;;;732476;190;918446;-75
2022/11/10 14:12:49;;;;;;;16.13;8.53;;;;;;;;;;741791;187;819414;-76